Ardsley, New York
Current Conditions -  °F | °C
As of 9:56 PM on Friday 31 Oct 2014 (Local Time) from KHPN Reporting Station
Overcast Overcast  
Wind Chill: 44°   Ceiling: 2100
Heat Index: 48°   Visibility: 10mi
Dew Point: 42°   Wind: 9mph
Humidity: 80%   Direction: 70°ENE
Pressure: 29.89"   Gusts: NA
Location:  41.01°N, 73.84°W
Report Text: KHPN 010156Z 07008KT 10SM OVC021 09/06 A2989 RMK AO2 RAB28E46 SLP126 P0000 T00890056
Loading
Personal Weather Stations






























Interactive Weather Map
Tropical Storm Tracking
New forecast layout! Learn more

10-Day Weather Forecast

Advertisements
Track Severe Weather on mobile